createdAt,value
2022-11-29T00:01:23.842Z,39.00
2022-11-29T00:04:35.630Z,40.28
2022-11-29T00:07:47.339Z,41.20
2022-11-29T00:10:59.187Z,38.10
2022-11-29T00:14:11.985Z,37.63
2022-11-29T00:17:23.708Z,35.03
2022-11-29T00:20:35.641Z,39.35
2022-11-29T00:23:47.451Z,39.53
2022-11-29T00:26:59.464Z,38.83
2022-11-29T00:30:15.151Z,37.85
2022-11-29T00:33:26.827Z,38.05
2022-11-29T00:36:39.024Z,38.68
2022-11-29T00:39:50.692Z,38.23
2022-11-29T00:43:02.389Z,39.15
2022-11-29T00:46:15.322Z,35.58
2022-11-29T00:49:27.267Z,35.40
2022-11-29T00:52:39.215Z,37.30
2022-11-29T00:55:53.353Z,37.78
2022-11-29T00:59:05.148Z,38.30
2022-11-29T01:02:17.197Z,32.80
2022-11-29T01:05:29.324Z,33.68
2022-11-29T01:08:41.400Z,35.65
2022-11-29T01:11:54.691Z,36.50
2022-11-29T01:15:07.210Z,36.08
2022-11-29T01:18:18.864Z,35.70
2022-11-29T01:21:31.237Z,34.23
2022-11-29T01:24:43.074Z,35.35
2022-11-29T01:27:56.286Z,36.53
2022-11-29T01:31:13.218Z,38.45
2022-11-29T01:34:25.046Z,36.75
2022-11-29T01:37:37.319Z,35.35
2022-11-29T01:40:49.212Z,40.45
2022-11-29T01:44:08.237Z,46.63
2022-11-29T01:47:20.380Z,42.80
2022-11-29T01:50:32.469Z,43.25
2022-11-29T01:53:44.500Z,40.73
2022-11-29T01:57:00.292Z,42.63
2022-11-29T02:00:19.553Z,41.83
2022-11-29T02:03:31.816Z,41.33
2022-11-29T02:06:45.515Z,39.83
2022-11-29T02:09:57.227Z,44.10
2022-11-29T02:13:15.654Z,40.93
2022-11-29T02:16:32.755Z,40.00
2022-11-29T02:20:20.462Z,39.90
2022-11-29T02:24:07.970Z,39.05
2022-11-29T02:27:51.541Z,41.43
2022-11-29T02:31:47.310Z,43.00
2022-11-29T02:35:09.685Z,37.03
2022-11-29T02:38:58.951Z,41.83
2022-11-29T02:42:56.867Z,40.45
2022-11-29T02:46:24.923Z,42.48
2022-11-29T02:49:54.364Z,39.63
2022-11-29T02:53:16.344Z,37.95
2022-11-29T02:56:36.367Z,39.50
2022-11-29T02:59:57.171Z,42.05
2022-11-29T03:03:14.603Z,40.48
2022-11-29T03:06:34.494Z,37.58
2022-11-29T03:09:49.110Z,36.48
2022-11-29T03:13:01.710Z,36.03
2022-11-29T03:16:21.034Z,36.90
2022-11-29T03:19:53.670Z,39.48
2022-11-29T03:23:26.372Z,38.38
2022-11-29T03:26:43.338Z,34.75
2022-11-29T03:33:14.171Z,35.15
2022-11-29T03:36:35.591Z,36.40
2022-11-29T03:39:54.088Z,32.43
2022-11-29T03:43:10.750Z,37.03
2022-11-29T03:46:30.437Z,35.58
2022-11-29T03:49:48.049Z,36.63
2022-11-29T03:53:05.187Z,35.45
2022-11-29T03:56:34.268Z,35.48
2022-11-29T04:00:03.312Z,34.90
2022-11-29T04:03:52.845Z,34.35
2022-11-29T04:07:17.049Z,33.48
2022-11-29T04:10:50.206Z,34.83
2022-11-29T04:14:38.261Z,34.18
2022-11-29T04:19:02.362Z,33.03
2022-11-29T04:22:59.461Z,34.63
2022-11-29T04:26:50.940Z,33.50
2022-11-29T04:30:24.215Z,33.85
2022-11-29T04:34:15.736Z,35.33
2022-11-29T04:37:58.223Z,33.28
2022-11-29T04:41:32.550Z,32.18
2022-11-29T04:45:03.181Z,32.95
2022-11-29T04:48:30.182Z,33.55
2022-11-29T04:52:09.286Z,31.33
2022-11-29T04:55:31.220Z,31.65
2022-11-29T04:58:48.185Z,30.55
2022-11-29T05:02:10.272Z,33.18
2022-11-29T05:05:34.175Z,32.35
2022-11-29T05:08:57.087Z,32.18
2022-11-29T05:12:14.823Z,29.10
2022-11-29T05:15:53.076Z,32.08
2022-11-29T05:19:36.709Z,33.45
2022-11-29T05:22:57.160Z,35.45
2022-11-29T05:26:16.321Z,36.85
2022-11-29T05:29:37.456Z,36.95
2022-11-29T05:33:04.536Z,33.03
2022-11-29T05:36:24.536Z,31.45
2022-11-29T05:39:52.557Z,33.95
2022-11-29T05:43:19.178Z,32.08
2022-11-29T05:46:37.001Z,29.15
2022-11-29T05:49:56.466Z,30.65
2022-11-29T05:53:17.944Z,29.83
2022-11-29T05:56:37.060Z,30.75
2022-11-29T05:59:51.831Z,32.10
2022-11-29T06:03:11.041Z,28.78
2022-11-29T06:06:30.349Z,30.18
2022-11-29T06:09:48.311Z,30.40
2022-11-29T06:13:10.516Z,32.08
2022-11-29T06:17:02.765Z,31.10
2022-11-29T06:20:48.711Z,33.78
2022-11-29T06:24:34.572Z,30.65
2022-11-29T06:28:13.860Z,30.23
2022-11-29T06:31:31.244Z,31.28
2022-11-29T06:34:51.103Z,30.00
2022-11-29T06:38:07.776Z,32.53
2022-11-29T06:41:26.512Z,31.75
2022-11-29T06:44:40.036Z,30.78
2022-11-29T06:47:57.071Z,31.23
2022-11-29T06:51:14.841Z,41.43
2022-11-29T06:54:38.744Z,36.33
2022-11-29T06:58:07.536Z,33.83
2022-11-29T07:01:27.884Z,33.63
2022-11-29T07:04:59.205Z,33.98
2022-11-29T07:08:17.307Z,32.33
2022-11-29T07:11:31.749Z,36.23
2022-11-29T07:14:45.742Z,52.25
2022-11-29T07:18:22.064Z,44.20
2022-11-29T07:21:42.875Z,34.48
2022-11-29T07:25:04.200Z,35.18
2022-11-29T07:28:26.479Z,36.83
2022-11-29T07:31:48.121Z,41.18
2022-11-29T07:35:06.726Z,39.60
2022-11-29T07:38:24.664Z,37.13
2022-11-29T07:41:43.420Z,38.43
2022-11-29T07:45:04.246Z,39.88
2022-11-29T07:48:19.300Z,43.25
2022-11-29T07:51:31.637Z,40.58
2022-11-29T07:54:43.791Z,39.93
2022-11-29T07:57:56.847Z,37.60
2022-11-29T08:01:09.304Z,37.13
2022-11-29T08:04:21.135Z,38.13
2022-11-29T08:07:33.091Z,38.55
2022-11-29T08:10:45.758Z,46.68
2022-11-29T08:14:01.542Z,37.33
2022-11-29T08:17:13.429Z,34.65
2022-11-29T08:20:25.766Z,33.88
2022-11-29T08:23:37.472Z,35.38
2022-11-29T08:26:49.318Z,33.58
2022-11-29T08:30:01.381Z,30.90
2022-11-29T08:33:13.195Z,34.05
2022-11-29T08:36:26.868Z,40.25
2022-11-29T08:39:38.705Z,45.13
2022-11-29T08:42:50.613Z,38.30
2022-11-29T08:46:02.607Z,34.03
2022-11-29T08:49:14.488Z,33.03
2022-11-29T08:52:41.330Z,32.70
2022-11-29T08:55:53.284Z,32.98
2022-11-29T08:59:05.148Z,28.98
2022-11-29T09:02:17.446Z,31.33
2022-11-29T09:05:29.978Z,33.53
2022-11-29T09:08:43.797Z,30.28
2022-11-29T09:11:55.725Z,27.03
2022-11-29T09:15:07.925Z,25.75
2022-11-29T09:18:20.033Z,27.90
2022-11-29T09:21:36.852Z,24.28
2022-11-29T09:24:48.748Z,27.35
2022-11-29T09:28:03.540Z,27.63
2022-11-29T09:31:20.099Z,28.88
2022-11-29T09:34:32.072Z,31.63
2022-11-29T09:37:47.490Z,35.48
2022-11-29T09:41:02.578Z,37.58
2022-11-29T09:44:20.945Z,31.98
2022-11-29T09:47:52.821Z,30.38
2022-11-29T09:51:14.447Z,32.40
2022-11-29T09:54:36.011Z,34.70
2022-11-29T09:57:49.910Z,34.08
2022-11-29T10:01:07.779Z,36.05
2022-11-29T10:04:24.449Z,33.80
2022-11-29T10:07:42.040Z,35.63
2022-11-29T10:10:57.286Z,29.35
2022-11-29T10:14:17.997Z,29.40
2022-11-29T10:17:38.611Z,31.88
2022-11-29T10:20:54.149Z,32.05
2022-11-29T10:24:11.672Z,36.35
2022-11-29T10:27:29.454Z,64.25
2022-11-29T10:30:43.233Z,26.08
2022-11-29T10:33:56.451Z,26.63
2022-11-29T10:37:08.984Z,28.20
2022-11-29T10:40:25.870Z,28.93
2022-11-29T10:43:37.820Z,28.08
2022-11-29T10:46:49.713Z,27.83
2022-11-29T10:50:02.002Z,26.10
2022-11-29T10:53:17.481Z,25.43
2022-11-29T10:56:35.212Z,24.43
2022-11-29T10:59:47.108Z,27.95
2022-11-29T11:02:58.871Z,29.63
2022-11-29T11:06:18.859Z,30.03
2022-11-29T11:09:38.359Z,29.03
2022-11-29T11:13:06.989Z,30.03
2022-11-29T11:16:24.539Z,30.95
2022-11-29T11:19:38.650Z,30.00
2022-11-29T11:22:50.659Z,29.58
2022-11-29T11:26:09.430Z,27.78
2022-11-29T11:29:28.784Z,29.38
2022-11-29T11:32:40.876Z,27.65
2022-11-29T11:36:17.425Z,31.75
2022-11-29T11:39:32.476Z,30.43
2022-11-29T11:42:46.540Z,29.58
2022-11-29T11:46:00.901Z,30.18
2022-11-29T11:49:23.779Z,55.23
2022-11-29T11:52:42.806Z,56.73
2022-11-29T11:56:06.374Z,31.43
2022-11-29T11:59:26.658Z,28.28
2022-11-29T12:02:44.978Z,26.55
2022-11-29T12:06:01.277Z,28.13
2022-11-29T12:09:22.526Z,29.50
2022-11-29T12:12:38.197Z,28.03
2022-11-29T12:15:53.931Z,30.35
2022-11-29T12:19:14.916Z,31.03
2022-11-29T12:22:32.059Z,30.75
2022-11-29T12:25:49.598Z,28.55
2022-11-29T12:29:02.394Z,30.10
2022-11-29T12:32:30.406Z,30.85
2022-11-29T12:36:12.873Z,31.70
2022-11-29T12:39:37.462Z,32.93
2022-11-29T12:42:57.141Z,30.08
2022-11-29T12:46:14.094Z,29.65
2022-11-29T12:49:31.520Z,27.30
2022-11-29T12:52:49.573Z,28.73
2022-11-29T12:56:10.937Z,29.03
2022-11-29T12:59:34.487Z,27.70
2022-11-29T13:03:04.409Z,26.13
2022-11-29T13:06:25.879Z,27.40
2022-11-29T13:10:00.471Z,27.70
2022-11-29T13:13:21.129Z,29.35
2022-11-29T13:16:46.866Z,25.68
2022-11-29T13:20:02.682Z,27.45
2022-11-29T13:23:39.175Z,29.33
2022-11-29T13:26:39.021Z,30.70
2022-11-29T13:29:51.175Z,28.75
2022-11-29T13:33:08.881Z,27.58
2022-11-29T13:36:25.629Z,30.60
2022-11-29T13:39:49.193Z,27.30
2022-11-29T13:43:08.374Z,28.28
2022-11-29T13:46:29.986Z,29.90
2022-11-29T13:50:04.119Z,29.13
2022-11-29T13:53:23.754Z,26.38
2022-11-29T13:56:47.037Z,26.78
2022-11-29T13:59:59.073Z,25.68
2022-11-29T14:03:38.428Z,28.28
2022-11-29T14:06:50.471Z,27.45
2022-11-29T14:10:08.323Z,26.60
2022-11-29T14:13:22.018Z,26.45
2022-11-29T14:16:39.978Z,26.78
2022-11-29T14:19:51.943Z,27.38
2022-11-29T14:23:39.020Z,28.93
2022-11-29T14:26:50.919Z,30.73
2022-11-29T14:30:03.093Z,30.48
2022-11-29T14:33:32.576Z,31.95
2022-11-29T14:36:55.903Z,30.25
2022-11-29T14:40:18.028Z,29.35
2022-11-29T14:43:34.639Z,29.68
2022-11-29T14:46:46.730Z,28.60
2022-11-29T14:50:00.907Z,30.18
2022-11-29T14:53:29.882Z,28.93
2022-11-29T14:56:47.461Z,28.90
2022-11-29T15:00:00.528Z,29.90
2022-11-29T15:03:18.536Z,30.35
2022-11-29T15:06:41.641Z,39.83
2022-11-29T15:09:52.757Z,30.08
2022-11-29T15:13:06.680Z,30.35
2022-11-29T15:16:49.989Z,30.60
2022-11-29T15:20:28.990Z,30.20
2022-11-29T15:23:49.415Z,30.78
2022-11-29T15:27:06.239Z,32.58
2022-11-29T15:30:36.959Z,30.70
2022-11-29T15:33:52.651Z,33.45
2022-11-29T15:37:05.369Z,32.30
2022-11-29T15:40:23.532Z,35.60
2022-11-29T15:43:40.243Z,38.33
2022-11-29T15:46:51.989Z,33.55
2022-11-29T15:50:03.840Z,35.90
2022-11-29T15:53:21.821Z,35.50
2022-11-29T15:56:39.917Z,36.80
2022-11-29T15:59:56.008Z,38.13
2022-11-29T16:03:09.703Z,36.80
2022-11-29T16:06:31.553Z,40.15
2022-11-29T16:09:47.597Z,35.78
2022-11-29T16:13:02.458Z,39.17
2022-11-29T16:16:20.670Z,37.43
2022-11-29T16:19:40.685Z,36.85
2022-11-29T16:22:54.812Z,35.53
2022-11-29T16:26:14.822Z,35.08
2022-11-29T16:29:33.078Z,36.83
2022-11-29T16:32:48.966Z,38.63
2022-11-29T16:36:17.369Z,36.58
2022-11-29T16:39:31.226Z,35.90
2022-11-29T16:42:43.335Z,33.50
2022-11-29T16:46:03.143Z,32.75
2022-11-29T16:49:42.131Z,33.48
2022-11-29T16:52:56.739Z,34.00
2022-11-29T16:56:09.000Z,32.83
2022-11-29T16:59:27.140Z,33.18
2022-11-29T17:02:36.106Z,31.95
2022-11-29T17:05:48.137Z,35.23
2022-11-29T17:09:02.260Z,35.83
2022-11-29T17:12:17.622Z,33.83
2022-11-29T17:15:29.515Z,33.25
2022-11-29T17:18:42.092Z,37.15
2022-11-29T17:21:54.427Z,32.05
2022-11-29T17:25:06.220Z,32.70
2022-11-29T17:28:17.931Z,32.73
2022-11-29T17:31:31.409Z,32.90
2022-11-29T17:34:43.595Z,31.90
2022-11-29T17:37:55.499Z,30.13
2022-11-29T17:41:14.027Z,30.73
2022-11-29T17:47:35.657Z,30.70
2022-11-29T17:50:47.863Z,30.53
2022-11-29T17:54:01.007Z,29.03
2022-11-29T17:57:12.678Z,31.50
2022-11-29T18:00:27.027Z,32.33
2022-11-29T18:03:40.325Z,31.68
2022-11-29T18:06:53.578Z,33.70
2022-11-29T18:10:05.251Z,45.55
2022-11-29T18:13:16.933Z,32.50
2022-11-29T18:16:30.909Z,35.15
2022-11-29T18:19:43.180Z,33.05
2022-11-29T18:22:56.313Z,33.00
2022-11-29T18:26:11.099Z,33.25
2022-11-29T18:29:23.294Z,35.20
2022-11-29T18:32:36.188Z,37.20
2022-11-29T18:35:47.896Z,38.30
2022-11-29T18:39:05.184Z,35.43
2022-11-29T18:42:17.050Z,47.08
2022-11-29T18:45:28.981Z,40.40
2022-11-29T18:48:41.381Z,37.58
2022-11-29T18:51:54.896Z,38.63
2022-11-29T18:55:06.812Z,36.48
2022-11-29T18:58:18.590Z,34.43
2022-11-29T19:01:32.144Z,35.28
2022-11-29T19:04:44.339Z,34.05
2022-11-29T19:07:56.330Z,33.43
2022-11-29T19:11:11.928Z,35.28
2022-11-29T19:14:24.018Z,35.03
2022-11-29T19:17:41.693Z,33.63
2022-11-29T19:20:50.300Z,36.93
2022-11-29T19:24:05.526Z,36.20
2022-11-29T19:27:17.369Z,35.70
2022-11-29T19:30:30.074Z,36.68
2022-11-29T19:33:44.916Z,36.38
2022-11-29T19:36:56.612Z,39.53
2022-11-29T19:40:12.763Z,38.98
2022-11-29T19:43:24.514Z,38.35
2022-11-29T19:46:39.599Z,40.73
2022-11-29T19:49:51.675Z,36.50
2022-11-29T19:53:03.830Z,37.18
2022-11-29T19:56:20.501Z,40.88
2022-11-29T19:59:33.516Z,37.83
2022-11-29T20:02:45.358Z,37.88
2022-11-29T20:06:07.301Z,37.63
2022-11-29T20:09:20.005Z,40.45
2022-11-29T20:12:32.396Z,42.05
2022-11-29T20:15:44.313Z,38.98
2022-11-29T20:18:57.824Z,39.23
2022-11-29T20:22:09.666Z,39.85
2022-11-29T20:25:21.608Z,42.28
2022-11-29T20:28:35.461Z,39.78
2022-11-29T20:31:51.047Z,40.35
2022-11-29T20:35:04.172Z,42.70
2022-11-29T20:38:25.909Z,39.95
2022-11-29T20:41:42.968Z,39.98
2022-11-29T20:48:18.184Z,43.63
2022-11-29T20:51:37.552Z,41.40
2022-11-29T20:54:49.695Z,40.53
2022-11-29T20:58:02.238Z,40.73
2022-11-29T21:01:15.169Z,41.05
2022-11-29T21:04:28.275Z,42.40
2022-11-29T21:07:41.166Z,42.58
2022-11-29T21:10:53.669Z,43.15
2022-11-29T21:14:08.234Z,41.73
2022-11-29T21:17:21.759Z,45.05
2022-11-29T21:20:35.222Z,42.98
2022-11-29T21:24:04.541Z,46.35
2022-11-29T21:27:23.551Z,42.98
2022-11-29T21:30:36.639Z,45.90
2022-11-29T21:33:49.996Z,44.73
2022-11-29T21:37:05.525Z,45.15
2022-11-29T21:40:19.610Z,44.15
2022-11-29T21:44:04.516Z,45.18
2022-11-29T21:46:45.587Z,49.63
2022-11-29T21:49:57.626Z,49.83
2022-11-29T21:53:09.773Z,42.63
2022-11-29T21:56:21.739Z,43.18
2022-11-29T21:59:33.684Z,45.85
2022-11-29T22:02:45.537Z,43.60
2022-11-29T22:05:57.885Z,45.53
2022-11-29T22:09:10.708Z,44.68
2022-11-29T22:12:37.759Z,44.20
2022-11-29T22:15:37.639Z,45.50
2022-11-29T22:18:49.473Z,44.63
2022-11-29T22:22:03.996Z,45.30
2022-11-29T22:25:16.568Z,43.33
2022-11-29T22:28:28.389Z,42.88
2022-11-29T22:31:41.409Z,45.73
2022-11-29T22:34:54.307Z,44.73
2022-11-29T22:38:06.086Z,45.93
2022-11-29T22:41:19.692Z,45.98
2022-11-29T22:44:31.794Z,44.15
2022-11-29T22:47:43.496Z,43.45
2022-11-29T22:50:55.280Z,45.90
2022-11-29T22:54:09.303Z,46.35
2022-11-29T22:57:21.172Z,45.93
2022-11-29T23:00:34.824Z,44.83
2022-11-29T23:03:48.542Z,45.75
2022-11-29T23:07:00.464Z,44.95
2022-11-29T23:10:14.941Z,46.05
2022-11-29T23:13:26.920Z,45.90
2022-11-29T23:16:39.098Z,45.73
2022-11-29T23:19:51.138Z,49.03
2022-11-29T23:23:03.034Z,61.45
2022-11-29T23:26:23.087Z,48.28
2022-11-29T23:29:35.025Z,43.85
2022-11-29T23:32:46.825Z,43.50
2022-11-29T23:36:04.988Z,44.08
2022-11-29T23:39:16.891Z,46.15
2022-11-29T23:42:28.664Z,45.90
2022-11-29T23:45:42.207Z,43.23
2022-11-29T23:48:54.297Z,46.63
2022-11-29T23:52:06.090Z,47.25
2022-11-29T23:55:19.957Z,46.23
2022-11-29T23:58:32.633Z,49.75
